Time;durP1;ratioP1;P1;durP2;ratioP2;P2;SDS_P1;SDS_P2;PMS_P1;PMS_P2;Temp;Humidity;BMP_temperature;BMP_pressure;BME280_temperature;BME280_humidity;BME280_pressure;Samples;Min_cycle;Max_cycle;Signal;HPM_P1;HPM_P2
2023/04/12 00:00:10;;;;;;;310.60;125.15;;;;;;;12.35;62.68;98493.44;308260;31;4247;-76
2023/04/12 00:00:20;;;;;;;310.00;124.95;;;;;;;12.37;62.36;98483.66;308693;31;4524;-76
2023/04/12 00:00:31;;;;;;;310.40;126.00;;;;;;;12.38;62.48;98486.19;313821;31;846;-76
2023/04/12 00:00:41;;;;;;;311.15;126.55;;;;;;;12.37;62.54;98486.28;313247;31;3197;-76
2023/04/12 00:00:53;;;;;;;309.67;126.97;;;;;;;12.33;62.49;98489.13;309661;31;2820;-76
2023/04/12 00:01:03;;;;;;;309.27;126.95;;;;;;;12.33;62.41;98483.88;307151;31;1485;-76
2023/04/12 00:01:14;;;;;;;307.40;125.70;;;;;;;12.33;62.51;98483.03;308052;31;3941;-76
2023/04/12 00:01:25;;;;;;;308.38;124.90;;;;;;;12.36;62.49;98482.00;305709;31;5933;-76
2023/04/12 00:01:35;;;;;;;309.93;125.63;;;;;;;12.33;62.46;98483.88;301457;32;6405;-75
2023/04/12 00:01:45;;;;;;;310.95;126.82;;;;;;;12.35;62.43;98480.31;301863;32;817;-76
2023/04/12 00:01:56;;;;;;;310.87;128.07;;;;;;;12.37;62.47;98488.91;299001;32;5471;-76
2023/04/12 00:02:07;;;;;;;311.40;128.23;;;;;;;12.37;62.30;98483.66;297363;32;6572;-76
2023/04/12 00:02:17;;;;;;;310.00;125.85;;;;;;;12.33;62.56;98481.25;301927;32;959;-76
2023/04/12 00:02:28;;;;;;;309.07;124.70;;;;;;;12.37;62.26;98488.91;297813;32;6323;-76
2023/04/12 00:02:38;;;;;;;308.60;124.22;;;;;;;12.40;62.20;98491.34;294555;33;6562;-76
2023/04/12 00:02:52;;;;;;;311.13;126.33;;;;;;;12.38;62.33;98485.34;294758;33;807;-75
2023/04/12 00:03:04;;;;;;;310.33;125.63;;;;;;;12.37;62.21;98488.91;291780;33;1481;-76
2023/04/12 00:03:19;;;;;;;309.30;126.40;;;;;;;12.40;62.36;98483.47;289739;33;5310;-76
2023/04/12 00:03:32;;;;;;;308.40;125.88;;;;;;;12.40;62.13;98479.06;285488;34;6826;-76
2023/04/12 00:03:49;;;;;;;306.23;124.78;;;;;;;12.43;62.15;98488.50;288356;33;8535;-76
2023/04/12 00:04:03;;;;;;;308.08;126.07;;;;;;;12.41;62.35;98479.91;287321;34;9442;-76
2023/04/12 00:04:14;;;;;;;310.15;127.70;;;;;;;12.33;62.46;98489.13;284546;34;8321;-76
2023/04/12 00:06:12;;;;;;;298.94;114.85;;;;;;;12.40;62.31;98486.09;2502399;27;20271;-76
2023/04/12 00:06:31;;;;;;;307.27;119.85;;;;;;;12.39;62.25;98485.25;352998;28;1382;-76
2023/04/12 00:06:41;;;;;;;308.35;121.20;;;;;;;12.41;62.53;98479.91;350461;28;872;-76
2023/04/12 00:06:53;;;;;;;304.98;121.43;;;;;;;12.42;62.23;98481.59;347494;28;895;-76
2023/04/12 00:07:04;;;;;;;305.05;121.75;;;;;;;12.45;62.27;98491.88;348574;28;1390;-76
2023/04/12 00:07:17;;;;;;;305.48;122.70;;;;;;;12.42;62.15;98482.44;348820;28;922;-76
2023/04/12 00:07:29;;;;;;;307.98;123.45;;;;;;;12.42;62.18;98478.97;350261;28;1256;-76
2023/04/12 00:07:39;;;;;;;307.08;123.80;;;;;;;12.45;61.97;98486.63;348960;28;943;-76
2023/04/12 00:07:52;;;;;;;308.53;124.63;;;;;;;12.45;62.11;98482.22;347515;28;893;-76
2023/04/12 00:08:03;;;;;;;304.08;123.18;;;;;;;12.47;62.03;98482.97;346263;28;975;-76
2023/04/12 00:08:15;;;;;;;306.52;123.45;;;;;;;12.49;62.23;98480.25;347359;28;1424;-76
2023/04/12 00:08:32;;;;;;;312.36;124.46;;;;;;;12.50;61.88;98485.38;346160;28;971;-76
2023/04/12 00:08:45;;;;;;;311.65;123.30;;;;;;;12.51;62.06;98475.72;346252;28;884;-76
2023/04/12 00:08:56;;;;;;;306.52;123.53;;;;;;;12.52;62.13;98483.50;346264;28;872;-76
2023/04/12 00:09:07;;;;;;;307.33;124.20;;;;;;;12.49;61.92;98483.69;345865;28;1185;-76
2023/04/12 00:09:18;;;;;;;307.73;124.63;;;;;;;12.50;61.79;98480.13;348993;28;1296;-76
2023/04/12 00:09:29;;;;;;;314.20;126.70;;;;;;;12.53;61.72;98489.59;348830;28;1231;-76
2023/04/12 00:09:40;;;;;;;313.85;126.55;;;;;;;12.53;61.99;98479.09;347597;28;939;-76
2023/04/12 00:09:50;;;;;;;310.90;124.70;;;;;;;12.46;62.15;98469.94;346793;28;899;-76
2023/04/12 00:10:02;;;;;;;306.27;123.65;;;;;;;12.43;62.07;98478.03;347216;28;1145;-76
2023/04/12 00:10:12;;;;;;;306.58;124.50;;;;;;;12.40;62.48;98478.22;345970;28;1412;-76
2023/04/12 00:10:22;;;;;;;307.45;124.00;;;;;;;12.38;62.33;98467.81;346651;28;1419;-76
2023/04/12 00:10:33;;;;;;;311.43;125.60;;;;;;;12.39;62.21;98473.91;346476;28;1004;-76
2023/04/12 00:10:43;;;;;;;311.58;124.70;;;;;;;12.37;62.47;98479.25;349012;28;820;-76
2023/04/12 00:10:54;;;;;;;309.20;125.23;;;;;;;12.34;62.25;98476.84;347466;28;994;-76
2023/04/12 00:11:04;;;;;;;309.90;124.47;;;;;;;12.33;62.58;98478.63;346349;28;1362;-76
2023/04/12 00:11:15;;;;;;;310.63;125.73;;;;;;;12.34;62.54;98482.09;350332;28;1206;-76
2023/04/12 00:11:30;;;;;;;314.70;127.10;;;;;;;12.35;62.68;98475.06;348947;28;1310;-76
2023/04/12 00:11:40;;;;;;;310.70;124.85;;;;;;;12.35;62.55;98475.06;344667;28;1534;-76
2023/04/12 00:11:51;;;;;;;309.93;122.37;;;;;;;12.38;62.74;98477.47;344529;28;911;-76
2023/04/12 00:12:01;;;;;;;307.47;120.27;;;;;;;12.37;62.35;98479.25;343400;28;1245;-76
2023/04/12 00:12:12;;;;;;;309.60;122.70;;;;;;;12.39;62.47;98476.53;344718;28;1315;-76
2023/04/12 00:12:22;;;;;;;313.97;126.17;;;;;;;12.40;62.43;98478.22;345236;28;1181;-76
2023/04/12 00:12:33;;;;;;;315.83;126.65;;;;;;;12.44;62.50;98479.69;344716;28;1624;-76
2023/04/12 00:12:43;;;;;;;314.57;126.03;;;;;;;12.40;62.30;98478.22;343409;28;877;-76
2023/04/12 00:12:54;;;;;;;308.58;124.03;;;;;;;12.39;62.43;98482.63;343176;28;1442;-76
2023/04/12 00:13:05;;;;;;;306.75;123.60;;;;;;;12.38;62.47;98474.84;340973;28;1358;-76
2023/04/12 00:13:16;;;;;;;308.27;123.13;;;;;;;12.42;62.37;98479.81;344949;28;884;-76
2023/04/12 00:13:27;;;;;;;310.95;124.13;;;;;;;12.40;62.30;98472.97;344741;28;1255;-76
2023/04/12 00:13:37;;;;;;;310.33;123.70;;;;;;;12.37;62.12;98473.19;341678;28;1206;-76
2023/04/12 00:13:47;;;;;;;309.80;124.28;;;;;;;12.31;62.58;98475.25;344804;28;1245;-76
2023/04/12 00:13:58;;;;;;;306.90;123.80;;;;;;;12.30;62.57;98473.56;341914;28;1213;-76
2023/04/12 00:14:08;;;;;;;309.07;125.13;;;;;;;12.31;62.70;98475.25;342830;28;1558;-76
2023/04/12 00:14:19;;;;;;;309.92;125.88;;;;;;;12.32;62.71;98476.94;345938;28;1333;-76
2023/04/12 00:14:30;;;;;;;314.20;127.68;;;;;;;12.29;62.55;98481.56;346217;28;1506;-76
2023/04/12 00:14:40;;;;;;;314.10;125.88;;;;;;;12.33;62.56;98477.78;335684;29;1217;-76
2023/04/12 00:14:51;;;;;;;311.87;123.63;;;;;;;12.33;62.64;98477.78;337388;29;1535;-76
2023/04/12 00:15:01;;;;;;;309.45;121.75;;;;;;;12.37;62.31;98478.44;340263;28;1957;-76
2023/04/12 00:15:12;;;;;;;308.17;123.53;;;;;;;12.35;62.46;98475.06;338210;29;1171;-77
2023/04/12 00:15:22;;;;;;;313.02;124.90;;;;;;;12.38;62.49;98485.34;335923;29;1211;-77
2023/04/12 00:15:33;;;;;;;314.13;125.00;;;;;;;12.37;62.49;98483.66;337180;29;1319;-77
2023/04/12 00:15:44;;;;;;;310.33;122.95;;;;;;;12.30;62.58;98476.19;338235;29;837;-77
2023/04/12 00:15:54;;;;;;;305.75;122.30;;;;;;;12.26;62.56;98469.47;335500;29;1286;-77
2023/04/12 00:16:05;;;;;;;305.30;122.20;;;;;;;12.31;62.55;98475.25;336125;29;1535;-77
2023/04/12 00:16:16;;;;;;;306.00;122.88;;;;;;;12.34;62.59;98476.84;336552;29;1807;-77
2023/04/12 00:16:27;;;;;;;308.93;124.60;;;;;;;12.29;62.59;98471.06;334439;29;921;-76
2023/04/12 00:16:37;;;;;;;311.13;123.83;;;;;;;12.35;62.34;98478.53;334443;29;2014;-76
2023/04/12 00:16:48;;;;;;;309.85;122.05;;;;;;;12.36;62.37;98474.13;332470;29;2602;-76
2023/04/12 00:16:58;;;;;;;307.50;119.80;;;;;;;12.33;62.52;98478.63;335313;29;1004;-76
2023/04/12 00:17:09;;;;;;;305.95;120.28;;;;;;;12.32;62.60;98482.19;329356;29;2189;-76
2023/04/12 00:17:19;;;;;;;309.43;122.87;;;;;;;12.29;62.99;98477.16;331377;29;1782;-76
2023/04/12 00:17:30;;;;;;;310.63;123.78;;;;;;;12.34;63.07;98474.22;333029;29;1261;-76
2023/04/12 00:17:40;;;;;;;309.03;122.57;;;;;;;12.34;62.83;98474.22;332943;29;873;-76
2023/04/12 00:17:50;;;;;;;304.23;119.38;;;;;;;12.30;62.57;98475.38;330878;29;1095;-76
2023/04/12 00:18:01;;;;;;;303.30;118.53;;;;;;;12.31;63.03;98477.03;328859;29;1803;-76
2023/04/12 00:18:11;;;;;;;305.17;119.87;;;;;;;12.31;62.79;98471.78;327914;30;1257;-76
2023/04/12 00:18:23;;;;;;;310.55;120.10;;;;;;;12.32;62.68;98476.09;326441;30;2101;-77
2023/04/12 00:18:34;;;;;;;314.30;121.82;;;;;;;12.33;62.60;98477.78;323767;30;2976;-77
2023/04/12 00:18:44;;;;;;;311.05;121.10;;;;;;;12.32;62.91;98471.69;320929;30;1245;-76
2023/04/12 00:18:56;;;;;;;305.80;120.77;;;;;;;12.29;62.60;98474.53;320413;30;2386;-76
2023/04/12 00:19:06;;;;;;;304.80;119.88;;;;;;;12.36;62.72;98474.13;320794;30;2134;-76
2023/04/12 00:19:17;;;;;;;305.90;120.50;;;;;;;12.36;62.72;98476.75;319695;30;2328;-76
2023/04/12 00:19:29;;;;;;;308.42;121.13;;;;;;;12.40;62.87;98478.22;324149;30;1199;-76
2023/04/12 00:19:40;;;;;;;306.95;120.22;;;;;;;12.39;62.47;98471.28;321862;30;1677;-76
2023/04/12 00:19:51;;;;;;;307.27;120.20;;;;;;;12.40;62.54;98473.81;321250;30;1265;-76
2023/04/12 00:20:04;;;;;;;304.75;120.40;;;;;;;12.40;62.56;98472.97;319309;30;1885;-76
2023/04/12 00:20:15;;;;;;;305.85;121.57;;;;;;;12.43;62.60;98483.28;318621;31;889;-76
2023/04/12 00:20:26;;;;;;;310.97;124.83;;;;;;;12.42;62.35;98484.22;314967;31;1207;-76
2023/04/12 00:20:37;;;;;;;310.08;123.80;;;;;;;12.43;62.26;98483.28;315939;31;2850;-76
2023/04/12 00:20:47;;;;;;;309.67;124.00;;;;;;;12.43;62.37;98475.41;313868;31;3109;-76
2023/04/12 00:20:58;;;;;;;302.05;120.15;;;;;;;12.44;62.41;98482.31;308908;31;1728;-75
2023/04/12 00:21:09;;;;;;;304.67;121.27;;;;;;;12.42;62.41;98481.59;314603;31;3279;-76
2023/04/12 00:21:22;;;;;;;307.98;124.97;;;;;;;12.41;62.49;98474.66;313006;31;2896;-76
2023/04/12 00:21:32;;;;;;;308.98;125.15;;;;;;;12.40;62.38;98480.84;310188;31;2857;-76
2023/04/12 00:21:43;;;;;;;306.57;124.43;;;;;;;12.41;62.30;98483.38;308540;32;1309;-76
2023/04/12 00:21:53;;;;;;;302.73;121.88;;;;;;;12.39;62.26;98484.41;313146;31;2278;-76
2023/04/12 00:22:05;;;;;;;303.93;122.47;;;;;;;12.38;62.27;98482.72;313865;31;2381;-76
2023/04/12 00:22:15;;;;;;;304.95;122.95;;;;;;;12.39;62.24;98484.41;312636;31;1462;-76
2023/04/12 00:22:27;;;;;;;304.45;120.93;;;;;;;12.41;62.29;98480.75;311560;31;827;-76
2023/04/12 00:22:40;;;;;;;304.52;120.38;;;;;;;12.41;62.24;98480.75;305911;32;2819;-76
2023/04/12 00:22:52;;;;;;;306.13;123.53;;;;;;;12.42;62.31;98481.59;305320;32;3954;-76
2023/04/12 00:23:03;;;;;;;305.42;123.82;;;;;;;12.44;62.21;98485.78;304288;31;4613;-76
2023/04/12 00:23:14;;;;;;;304.52;123.57;;;;;;;12.45;62.38;98481.38;308187;32;1342;-76
2023/04/12 00:23:24;;;;;;;306.58;124.25;;;;;;;12.45;62.46;98481.38;304204;32;4624;-76
2023/04/12 00:23:36;;;;;;;307.33;125.77;;;;;;;12.43;62.41;98489.34;304481;32;3762;-76
2023/04/12 00:23:48;;;;;;;306.30;124.72;;;;;;;12.42;62.45;98486.84;305754;31;3612;-76
2023/04/12 00:23:58;;;;;;;304.50;123.03;;;;;;;12.43;62.43;98483.28;308117;32;1542;-76
2023/04/12 00:24:09;;;;;;;307.77;124.47;;;;;;;12.43;62.76;98483.28;305305;32;3004;-76
2023/04/12 00:24:19;;;;;;;308.35;123.65;;;;;;;12.38;62.39;98482.72;303630;32;2817;-76
2023/04/12 00:24:30;;;;;;;307.88;122.25;;;;;;;12.39;62.36;98479.16;302618;32;864;-76
2023/04/12 00:24:40;;;;;;;305.03;121.47;;;;;;;12.41;62.17;98485.16;304722;32;1358;-76
2023/04/12 00:24:50;;;;;;;305.03;122.80;;;;;;;12.40;62.55;98484.31;303975;32;4804;-76
2023/04/12 00:25:01;;;;;;;305.45;123.78;;;;;;;12.41;62.44;98488.63;300394;32;5607;-76
2023/04/12 00:25:11;;;;;;;307.83;124.53;;;;;;;12.44;62.46;98484.94;295820;33;899;-76
2023/04/12 00:25:22;;;;;;;308.08;124.40;;;;;;;12.44;62.32;98485.78;294232;33;6664;-76
2023/04/12 00:25:32;;;;;;;307.37;125.20;;;;;;;12.45;62.13;98486.63;292567;33;6407;-76
2023/04/12 00:25:43;;;;;;;305.95;124.40;;;;;;;12.44;62.50;98490.19;292854;33;875;-76
2023/04/12 00:25:53;;;;;;;306.87;125.00;;;;;;;12.43;62.31;98484.09;290886;33;5991;-76
2023/04/12 00:26:04;;;;;;;307.65;125.35;;;;;;;12.44;62.39;98485.78;290549;33;5398;-76
2023/04/12 00:26:14;;;;;;;306.73;125.75;;;;;;;12.41;62.55;98485.16;291067;33;1337;-76
2023/04/12 00:26:25;;;;;;;308.27;126.27;;;;;;;12.39;62.61;98482.63;290659;33;4289;-76
2023/04/12 00:26:35;;;;;;;308.23;126.18;;;;;;;12.37;62.66;98484.50;289398;33;4519;-76
2023/04/12 00:26:46;;;;;;;310.47;126.70;;;;;;;12.33;62.56;98483.88;288792;33;7245;-76
2023/04/12 00:26:56;;;;;;;308.40;125.33;;;;;;;12.28;62.75;98488.59;289872;34;880;-76
2023/04/12 00:27:07;;;;;;;308.95;125.53;;;;;;;12.28;62.65;98480.72;287595;34;7433;-76
2023/04/12 00:27:17;;;;;;;306.38;123.45;;;;;;;12.30;62.75;98489.31;286258;34;8146;-76
2023/04/12 00:27:27;;;;;;;306.77;123.93;;;;;;;12.29;62.30;98477.16;289072;34;907;-76
2023/04/12 00:27:38;;;;;;;306.47;124.03;;;;;;;12.22;62.40;98480.28;285857;34;8932;-76
2023/04/12 00:29:38;;;;;;;294.49;110.57;;;;;;;12.15;63.04;98479.81;2498942;27;20996;-76
2023/04/12 00:29:49;;;;;;;298.50;115.43;;;;;;;12.12;63.21;98480.06;352583;28;1250;-76
2023/04/12 00:29:59;;;;;;;300.38;116.95;;;;;;;12.16;62.99;98476.25;348821;28;1189;-76
2023/04/12 00:30:10;;;;;;;306.20;118.57;;;;;;;12.19;62.73;98481.31;348958;28;1333;-76
2023/04/12 00:30:22;;;;;;;307.48;119.05;;;;;;;12.21;62.64;98474.19;350116;28;1470;-77
2023/04/12 00:30:32;;;;;;;306.63;118.35;;;;;;;12.23;63.00;98472.31;347755;28;1287;-76
2023/04/12 00:30:44;;;;;;;302.13;116.57;;;;;;;12.22;63.06;98478.47;348796;28;1193;-75
2023/04/12 00:30:55;;;;;;;302.20;117.53;;;;;;;12.23;62.70;98482.78;348502;28;1474;-75
2023/04/12 00:31:05;;;;;;;303.38;117.90;;;;;;;12.22;62.64;98469.78;348947;28;1275;-75
2023/04/12 00:31:16;;;;;;;303.80;117.72;;;;;;;12.28;62.69;98485.97;347516;28;1209;-76
2023/04/12 00:31:26;;;;;;;303.23;118.37;;;;;;;12.29;62.34;98471.91;347378;28;1514;-76
2023/04/12 00:31:37;;;;;;;302.58;118.82;;;;;;;12.29;62.60;98471.91;348924;28;947;-76
2023/04/12 00:31:47;;;;;;;304.10;121.40;;;;;;;12.17;62.60;98472.69;349787;28;1184;-76
2023/04/12 00:32:00;;;;;;;305.10;121.40;;;;;;;12.21;62.47;98468.09;350151;28;1219;-76
2023/04/12 00:32:10;;;;;;;310.20;123.93;;;;;;;12.24;62.77;98478.38;348870;28;1440;-76
2023/04/12 00:32:21;;;;;;;309.92;123.35;;;;;;;12.21;62.75;98478.59;350239;28;1272;-76
2023/04/12 00:32:31;;;;;;;308.93;122.63;;;;;;;12.19;62.57;98480.47;350162;28;1197;-76
2023/04/12 00:32:41;;;;;;;302.58;119.00;;;;;;;12.21;62.78;98484.69;348887;28;1433;-76
2023/04/12 00:32:52;;;;;;;301.73;118.00;;;;;;;12.17;62.83;98475.31;350005;28;899;-76
2023/04/12 00:33:02;;;;;;;301.48;118.55;;;;;;;12.17;62.78;98477.09;347524;28;877;-76
2023/04/12 00:33:13;;;;;;;307.43;120.53;;;;;;;12.18;62.75;98474.38;346290;28;873;-78
2023/04/12 00:33:23;;;;;;;307.07;120.20;;;;;;;12.20;62.61;98474.28;348849;28;1335;-77
2023/04/12 00:33:34;;;;;;;306.67;119.13;;;;;;;12.20;62.60;98467.25;350180;28;1439;-76
2023/04/12 00:33:45;;;;;;;302.50;118.47;;;;;;;12.21;62.70;98471.56;349938;28;828;-75
2023/04/12 00:33:55;;;;;;;302.25;117.22;;;;;;;12.21;62.54;98479.44;348126;28;1278;-75
2023/04/12 00:34:05;;;;;;;306.87;125.97;;;;;;;12.22;62.60;98465.38;345008;28;1140;-75
2023/04/12 00:34:16;;;;;;;308.60;127.87;;;;;;;12.21;62.72;98475.97;347009;28;987;-75
2023/04/12 00:34:27;;;;;;;309.30;129.27;;;;;;;12.24;62.76;98468.75;347569;28;781;-75
2023/04/12 00:34:38;;;;;;;301.48;119.40;;;;;;;12.25;62.87;98465.16;348740;28;836;-75
2023/04/12 00:34:48;;;;;;;301.13;118.03;;;;;;;12.25;62.75;98466.94;348414;28;1589;-75
2023/04/12 00:34:58;;;;;;;302.63;117.57;;;;;;;12.28;62.64;98475.47;347326;28;1078;-75
2023/04/12 00:35:09;;;;;;;307.35;119.78;;;;;;;12.27;62.64;98462.44;344722;28;1302;-76
2023/04/12 00:35:19;;;;;;;306.63;120.40;;;;;;;12.27;62.62;98468.53;346733;28;916;-76
2023/04/12 00:35:30;;;;;;;304.88;120.13;;;;;;;12.26;62.61;98466.84;349001;28;1384;-76
2023/04/12 00:35:40;;;;;;;302.57;119.47;;;;;;;12.26;62.70;98471.25;346175;28;1385;-76
2023/04/12 00:35:50;;;;;;;304.77;121.03;;;;;;;12.27;62.28;98467.69;346622;28;1313;-76
2023/04/12 00:36:01;;;;;;;305.52;120.57;;;;;;;12.25;62.56;98469.56;345978;28;1323;-76
2023/04/12 00:36:11;;;;;;;308.67;121.70;;;;;;;12.23;62.47;98466.22;344572;28;1477;-76
2023/04/12 00:36:22;;;;;;;306.58;119.82;;;;;;;12.21;62.72;98468.94;343330;28;1761;-75
2023/04/12 00:36:32;;;;;;;305.87;120.13;;;;;;;12.22;62.73;98467.16;344878;28;940;-75
2023/04/12 00:36:42;;;;;;;301.83;118.50;;;;;;;12.21;62.30;98457.59;344760;28;888;-75
2023/04/12 00:36:53;;;;;;;305.57;119.80;;;;;;;12.19;62.83;98470.81;344390;28;912;-75
2023/04/12 00:37:03;;;;;;;306.05;120.40;;;;;;;12.20;62.69;98466.41;345152;28;1117;-75
2023/04/12 00:37:14;;;;;;;305.83;119.57;;;;;;;12.21;62.31;98466.31;341957;28;1272;-75
2023/04/12 00:37:24;;;;;;;303.23;117.80;;;;;;;12.22;62.71;98465.38;343511;28;828;-75
2023/04/12 00:37:37;;;;;;;305.77;117.90;;;;;;;12.24;62.45;98467.91;346481;28;1355;-75
2023/04/12 00:37:49;;;;;;;307.02;119.03;;;;;;;12.24;62.55;98462.66;337857;29;1450;-76
2023/04/12 00:38:01;;;;;;;306.35;119.90;;;;;;;12.25;62.54;98465.16;336201;29;1341;-76
2023/04/12 00:38:13;;;;;;;310.67;121.65;;;;;;;12.27;62.60;98471.16;338086;29;1373;-76
2023/04/12 00:38:23;;;;;;;308.00;119.60;;;;;;;12.24;62.39;98462.66;335676;29;882;-76
2023/04/12 00:38:34;;;;;;;307.03;119.40;;;;;;;12.21;62.58;98473.34;334648;29;2061;-76
2023/04/12 00:38:47;;;;;;;302.23;118.07;;;;;;;12.17;62.71;98467.47;337120;29;1066;-76
2023/04/12 00:38:57;;;;;;;303.17;118.38;;;;;;;12.14;62.81;98467.66;338160;29;1023;-76
2023/04/12 00:39:08;;;;;;;304.88;118.40;;;;;;;12.17;62.91;98470.06;335418;29;1263;-76
2023/04/12 00:39:19;;;;;;;303.92;117.85;;;;;;;12.18;62.55;98474.38;336047;29;2031;-76
2023/04/12 00:39:29;;;;;;;303.73;117.80;;;;;;;12.16;62.75;98471.03;337395;29;1588;-76
2023/04/12 00:39:39;;;;;;;301.40;116.97;;;;;;;12.15;62.78;98463.25;336864;29;1570;-76
2023/04/12 00:39:50;;;;;;;302.20;118.93;;;;;;;12.14;62.95;98467.66;333667;29;1578;-75
2023/04/12 00:40:01;;;;;;;302.20;119.43;;;;;;;12.17;62.82;98472.69;330068;29;1715;-75
2023/04/12 00:40:11;;;;;;;306.83;121.07;;;;;;;12.19;62.69;98470.81;331616;29;1551;-75
2023/04/12 00:40:22;;;;;;;305.77;118.85;;;;;;;12.21;62.88;98465.47;328891;29;1553;-75
2023/04/12 00:40:32;;;;;;;305.90;118.90;;;;;;;12.21;62.71;98463.69;327766;29;2098;-75
2023/04/12 00:40:43;;;;;;;300.77;116.77;;;;;;;12.22;62.74;98456.66;328145;29;1751;-75
2023/04/12 00:40:53;;;;;;;301.10;116.95;;;;;;;12.19;62.75;98459.47;330281;29;1037;-75
2023/04/12 00:41:04;;;;;;;301.03;116.50;;;;;;;12.16;62.62;98471.03;332853;29;1194;-75
2023/04/12 00:41:14;;;;;;;305.27;118.15;;;;;;;12.16;62.91;98455.28;329121;29;1262;-75
2023/04/12 00:41:25;;;;;;;306.20;118.43;;;;;;;12.15;62.73;98473.75;331744;29;1187;-75
2023/04/12 00:41:36;;;;;;;305.80;118.43;;;;;;;12.12;62.94;98459.06;326935;29;1756;-75
2023/04/12 00:41:47;;;;;;;302.55;118.10;;;;;;;12.11;62.84;98465.25;326074;30;2678;-75
2023/04/12 00:42:02;;;;;;;303.10;118.40;;;;;;;12.14;63.11;98464.19;321922;30;1496;-75
2023/04/12 00:42:12;;;;;;;307.90;119.50;;;;;;;12.17;62.77;98471.84;321473;30;2342;-75
2023/04/12 00:42:23;;;;;;;310.10;119.83;;;;;;;12.18;62.90;98457.81;325566;30;896;-75
2023/04/12 00:42:35;;;;;;;312.27;121.07;;;;;;;12.18;62.67;98458.66;322713;30;2444;-75
2023/04/12 00:42:45;;;;;;;307.48;119.43;;;;;;;12.21;62.64;98466.31;321467;30;2684;-75
2023/04/12 00:42:56;;;;;;;304.30;119.55;;;;;;;12.19;62.84;98455.09;320650;30;1433;-75
2023/04/12 00:43:07;;;;;;;304.87;120.47;;;;;;;12.20;62.59;98459.38;323424;30;1821;-75
2023/04/12 00:43:18;;;;;;;306.77;120.28;;;;;;;12.19;62.71;98457.69;320577;30;1723;-75
2023/04/12 00:43:28;;;;;;;306.55;119.47;;;;;;;12.23;62.74;98460.97;319462;30;1897;-75
2023/04/12 00:43:40;;;;;;;304.17;118.78;;;;;;;12.21;62.54;98463.69;321973;30;1313;-75
2023/04/12 00:43:51;;;;;;;306.00;120.97;;;;;;;12.21;62.86;98457.59;322320;30;2928;-75
2023/04/12 00:44:01;;;;;;;303.13;119.73;;;;;;;12.20;62.89;98458.53;321584;30;3993;-75
2023/04/12 00:44:11;;;;;;;305.95;120.40;;;;;;;12.21;62.73;98458.44;320848;30;1251;-75
2023/04/12 00:44:22;;;;;;;305.60;120.27;;;;;;;12.22;62.85;98459.28;317833;30;2923;-75
2023/04/12 00:44:33;;;;;;;307.17;122.18;;;;;;;12.24;62.69;98455.63;318607;30;3192;-75
2023/04/12 00:44:43;;;;;;;305.33;122.00;;;;;;;12.25;62.77;98459.94;318929;30;3087;-75
2023/04/12 00:44:54;;;;;;;306.33;120.70;;;;;;;12.26;62.71;98456.34;317279;31;865;-75
2023/04/12 00:45:05;;;;;;;305.47;119.03;;;;;;;12.26;62.56;98456.34;313046;31;3084;-75
2023/04/12 00:45:16;;;;;;;305.63;119.65;;;;;;;12.22;62.87;98457.50;310538;31;2763;-75
2023/04/12 00:45:27;;;;;;;304.97;119.43;;;;;;;12.23;62.59;98456.56;311160;31;1244;-75
2023/04/12 00:45:37;;;;;;;302.23;117.28;;;;;;;12.24;62.83;98457.41;309267;31;1437;-75
2023/04/12 00:45:48;;;;;;;301.93;117.40;;;;;;;12.24;62.97;98453.00;308999;31;2214;-75
2023/04/12 00:45:58;;;;;;;303.00;118.03;;;;;;;12.22;62.68;98454.88;306575;31;4162;-75
2023/04/12 00:46:11;;;;;;;309.33;121.67;;;;;;;12.16;62.71;98455.28;304220;32;1536;-75
2023/04/12 00:46:21;;;;;;;308.35;120.80;;;;;;;12.15;62.78;98460.63;303002;32;5083;-75
2023/04/12 00:46:31;;;;;;;306.37;120.57;;;;;;;12.15;62.87;98447.50;301978;32;4162;-75
2023/04/12 00:46:42;;;;;;;307.37;120.20;;;;;;;12.12;62.68;98456.44;300961;32;1195;-76
2023/04/12 00:46:53;;;;;;;308.48;121.50;;;;;;;12.14;62.85;98451.91;299887;32;4959;-76
2023/04/12 00:47:04;;;;;;;310.60;122.57;;;;;;;12.10;63.00;98455.72;301795;32;4220;-76
2023/04/12 00:47:14;;;;;;;310.33;122.93;;;;;;;12.10;62.80;98460.97;303854;32;4573;-76
2023/04/12 00:47:25;;;;;;;311.07;121.93;;;;;;;12.10;63.21;98455.72;304344;32;967;-76
2023/04/12 00:47:35;;;;;;;308.98;119.28;;;;;;;12.14;63.08;98462.41;305103;32;3643;-76
2023/04/12 00:47:46;;;;;;;303.20;116.70;;;;;;;12.15;63.16;98468.50;301531;32;2775;-76
2023/04/12 00:47:56;;;;;;;303.07;116.03;;;;;;;12.15;62.91;98458.00;297763;33;1307;-76
2023/04/12 00:48:07;;;;;;;303.77;117.70;;;;;;;12.15;62.85;98456.22;295006;33;4135;-75
2023/04/12 00:48:17;;;;;;;304.77;117.90;;;;;;;12.19;62.81;98460.31;295054;33;5585;-76
2023/04/12 00:48:28;;;;;;;304.10;118.50;;;;;;;12.21;62.91;98452.34;292469;33;8716;-76
2023/04/12 00:48:39;;;;;;;304.83;120.43;;;;;;;12.22;62.82;98457.50;290827;34;1339;-76
2023/04/12 00:48:49;;;;;;;305.25;121.43;;;;;;;12.23;62.92;98459.19;290076;33;6889;-76
2023/04/12 00:48:59;;;;;;;304.30;120.35;;;;;;;12.23;62.70;98451.31;289483;33;6540;-76
2023/04/12 00:49:11;;;;;;;303.00;120.33;;;;;;;12.19;62.94;98449.84;290843;34;1321;-76
2023/04/12 00:49:21;;;;;;;303.38;120.76;;;;;;;12.16;62.94;98454.44;288137;33;6220;-76
2023/04/12 00:49:32;;;;;;;303.90;121.07;;;;;;;12.15;62.78;98458.00;285892;34;6488;-76
2023/04/12 00:49:42;;;;;;;305.90;121.27;;;;;;;12.15;63.33;98453.59;286924;34;1583;-76
2023/04/12 00:49:52;;;;;;;306.83;121.65;;;;;;;12.13;63.30;98463.34;276564;35;896;-75
2023/04/12 00:50:03;;;;;;;315.47;122.83;;;;;;;12.11;62.83;98451.31;279459;34;5186;-75
2023/04/12 00:50:14;;;;;;;315.50;121.20;;;;;;;12.11;63.08;98457.41;279734;35;5493;-76
2023/04/12 00:50:24;;;;;;;312.65;119.55;;;;;;;12.12;63.08;98458.22;280005;35;1151;-76
2023/04/12 00:50:35;;;;;;;305.30;119.57;;;;;;;12.11;63.00;98461.81;275616;35;8923;-76
2023/04/12 00:50:46;;;;;;;304.45;120.15;;;;;;;12.09;63.12;98454.03;275807;35;11986;-76
2023/04/12 00:50:56;;;;;;;306.52;122.70;;;;;;;12.12;63.08;98451.22;280055;35;965;-76
2023/04/12 00:51:07;;;;;;;304.70;120.53;;;;;;;12.15;63.22;98448.34;280246;34;9285;-76
2023/04/12 00:51:21;;;;;;;304.58;120.50;;;;;;;12.17;63.11;98454.34;279338;35;9234;-76
2023/04/12 00:53:13;;;;;;;295.75;110.29;;;;;;;12.09;63.06;98454.03;2492322;27;20262;-77
2023/04/12 00:53:24;;;;;;;298.07;114.57;;;;;;;12.07;63.08;98449.81;350062;28;1410;-77
2023/04/12 00:53:34;;;;;;;299.52;116.00;;;;;;;12.05;63.13;98436.81;346158;28;1194;-76
2023/04/12 00:53:45;;;;;;;301.30;117.83;;;;;;;12.05;63.16;98457.78;347820;28;1398;-76
2023/04/12 00:53:58;;;;;;;304.05;118.43;;;;;;;12.00;63.34;98449.38;348955;28;1306;-76
2023/04/12 00:54:08;;;;;;;301.73;115.57;;;;;;;11.98;63.50;98451.25;348982;28;1017;-75
2023/04/12 00:54:19;;;;;;;300.38;114.15;;;;;;;11.96;63.41;98447.91;348919;28;1260;-75
2023/04/12 00:54:33;;;;;;;300.67;114.13;;;;;;;11.96;63.56;98448.75;347552;28;815;-75
2023/04/12 00:54:43;;;;;;;301.95;114.88;;;;;;;11.97;63.48;98449.59;346226;28;776;-75
2023/04/12 00:54:54;;;;;;;301.02;114.20;;;;;;;11.96;63.64;98453.16;345265;28;1359;-75
2023/04/12 00:55:06;;;;;;;301.93;114.13;;;;;;;11.98;63.47;98443.41;345064;28;1283;-75
2023/04/12 00:55:16;;;;;;;303.58;114.45;;;;;;;12.03;63.39;98453.59;347584;28;1299;-75
2023/04/12 00:55:27;;;;;;;303.20;114.88;;;;;;;12.06;63.39;98450.78;346171;28;969;-75
2023/04/12 00:55:39;;;;;;;301.57;116.03;;;;;;;12.06;63.50;98449.00;344408;28;8004;-75
2023/04/12 00:55:50;;;;;;;300.50;115.50;;;;;;;12.02;63.34;98452.75;346177;28;845;-75